sensor_id;sensor_type;location;lat;lon;timestamp;temperature;humidity
9849;DHT22;4963;51.444;6.528;2022-09-09T00:02:27;17.40;99.90
9849;DHT22;4963;51.444;6.528;2022-09-09T00:04:58;17.40;99.90
9849;DHT22;4963;51.444;6.528;2022-09-09T00:07:36;17.30;99.90
9849;DHT22;4963;51.444;6.528;2022-09-09T00:10:15;17.30;99.90
9849;DHT22;4963;51.444;6.528;2022-09-09T00:12:51;17.30;99.90
9849;DHT22;4963;51.444;6.528;2022-09-09T00:15:23;17.30;99.90
9849;DHT22;4963;51.444;6.528;2022-09-09T00:17:58;17.40;99.90
9849;DHT22;4963;51.444;6.528;2022-09-09T00:20:29;17.30;99.90
9849;DHT22;4963;51.444;6.528;2022-09-09T00:23:02;17.20;99.90
9849;DHT22;4963;51.444;6.528;2022-09-09T00:25:37;17.20;99.90
9849;DHT22;4963;51.444;6.528;2022-09-09T00:28:13;17.10;99.90
9849;DHT22;4963;51.444;6.528;2022-09-09T00:30:43;17.10;99.90
9849;DHT22;4963;51.444;6.528;2022-09-09T00:33:12;17.10;99.90
9849;DHT22;4963;51.444;6.528;2022-09-09T00:35:44;17.10;99.90
9849;DHT22;4963;51.444;6.528;2022-09-09T00:38:15;17.10;99.90
9849;DHT22;4963;51.444;6.528;2022-09-09T00:40:49;17.10;99.90
9849;DHT22;4963;51.444;6.528;2022-09-09T00:43:27;17.10;99.90
9849;DHT22;4963;51.444;6.528;2022-09-09T00:46:11;17.10;99.90
9849;DHT22;4963;51.444;6.528;2022-09-09T00:48:47;17.00;99.90
9849;DHT22;4963;51.444;6.528;2022-09-09T00:51:22;17.00;99.90
9849;DHT22;4963;51.444;6.528;2022-09-09T00:54:15;17.00;99.90
9849;DHT22;4963;51.444;6.528;2022-09-09T00:56:49;17.00;99.90
9849;DHT22;4963;51.444;6.528;2022-09-09T00:59:27;17.00;99.90
9849;DHT22;4963;51.444;6.528;2022-09-09T01:01:57;17.00;99.90
9849;DHT22;4963;51.444;6.528;2022-09-09T01:04:32;17.10;99.90
9849;DHT22;4963;51.444;6.528;2022-09-09T01:07:06;17.10;99.90
9849;DHT22;4963;51.444;6.528;2022-09-09T01:09:45;17.10;99.90
9849;DHT22;4963;51.444;6.528;2022-09-09T01:12:16;17.10;99.90
9849;DHT22;4963;51.444;6.528;2022-09-09T01:14:48;17.10;99.90
9849;DHT22;4963;51.444;6.528;2022-09-09T01:17:20;17.10;99.90
9849;DHT22;4963;51.444;6.528;2022-09-09T01:19:57;17.10;99.90
9849;DHT22;4963;51.444;6.528;2022-09-09T01:22:33;17.00;99.90
9849;DHT22;4963;51.444;6.528;2022-09-09T01:25:28;17.00;99.90
9849;DHT22;4963;51.444;6.528;2022-09-09T01:27:59;17.00;99.90
9849;DHT22;4963;51.444;6.528;2022-09-09T01:30:28;17.00;99.90
9849;DHT22;4963;51.444;6.528;2022-09-09T01:32:56;17.00;99.90
9849;DHT22;4963;51.444;6.528;2022-09-09T01:35:36;16.90;99.90
9849;DHT22;4963;51.444;6.528;2022-09-09T01:38:04;16.90;99.90
9849;DHT22;4963;51.444;6.528;2022-09-09T01:40:31;16.90;99.90
9849;DHT22;4963;51.444;6.528;2022-09-09T01:43:00;16.90;99.90
9849;DHT22;4963;51.444;6.528;2022-09-09T01:45:27;16.90;99.90
9849;DHT22;4963;51.444;6.528;2022-09-09T01:47:54;16.90;99.90
9849;DHT22;4963;51.444;6.528;2022-09-09T01:50:22;16.80;99.90
9849;DHT22;4963;51.444;6.528;2022-09-09T01:52:51;16.90;99.90
9849;DHT22;4963;51.444;6.528;2022-09-09T01:55:29;16.80;99.90
9849;DHT22;4963;51.444;6.528;2022-09-09T01:58:08;16.80;99.90
9849;DHT22;4963;51.444;6.528;2022-09-09T02:00:40;16.80;99.90
9849;DHT22;4963;51.444;6.528;2022-09-09T02:03:19;16.80;99.90
9849;DHT22;4963;51.444;6.528;2022-09-09T02:05:54;16.70;99.90
9849;DHT22;4963;51.444;6.528;2022-09-09T02:08:25;16.70;99.90
9849;DHT22;4963;51.444;6.528;2022-09-09T02:10:56;16.70;99.90
9849;DHT22;4963;51.444;6.528;2022-09-09T02:13:26;16.60;99.90
9849;DHT22;4963;51.444;6.528;2022-09-09T02:15:57;16.60;99.90
9849;DHT22;4963;51.444;6.528;2022-09-09T02:18:29;16.70;99.90
9849;DHT22;4963;51.444;6.528;2022-09-09T02:20:59;16.70;99.90
9849;DHT22;4963;51.444;6.528;2022-09-09T02:23:26;16.60;99.90
9849;DHT22;4963;51.444;6.528;2022-09-09T02:25:56;16.70;99.90
9849;DHT22;4963;51.444;6.528;2022-09-09T02:28:28;16.70;99.90
9849;DHT22;4963;51.444;6.528;2022-09-09T02:30:56;16.70;99.90
9849;DHT22;4963;51.444;6.528;2022-09-09T02:33:26;16.70;99.90
9849;DHT22;4963;51.444;6.528;2022-09-09T02:35:53;16.70;99.90
9849;DHT22;4963;51.444;6.528;2022-09-09T02:38:29;16.60;99.90
9849;DHT22;4963;51.444;6.528;2022-09-09T02:40:57;16.60;99.90
9849;DHT22;4963;51.444;6.528;2022-09-09T02:43:30;16.60;99.90
9849;DHT22;4963;51.444;6.528;2022-09-09T02:46:02;16.60;99.90
9849;DHT22;4963;51.444;6.528;2022-09-09T02:48:36;16.60;99.90
9849;DHT22;4963;51.444;6.528;2022-09-09T02:51:15;16.60;99.90
9849;DHT22;4963;51.444;6.528;2022-09-09T02:53:49;16.50;99.90
9849;DHT22;4963;51.444;6.528;2022-09-09T02:56:21;16.50;99.90
9849;DHT22;4963;51.444;6.528;2022-09-09T02:58:49;16.60;99.90
9849;DHT22;4963;51.444;6.528;2022-09-09T03:01:17;16.60;99.90
9849;DHT22;4963;51.444;6.528;2022-09-09T03:03:44;16.60;99.90
9849;DHT22;4963;51.444;6.528;2022-09-09T03:06:12;16.60;99.90
9849;DHT22;4963;51.444;6.528;2022-09-09T03:08:39;16.60;99.90
9849;DHT22;4963;51.444;6.528;2022-09-09T03:11:07;16.70;99.90
9849;DHT22;4963;51.444;6.528;2022-09-09T03:13:35;16.70;99.90
9849;DHT22;4963;51.444;6.528;2022-09-09T03:16:04;16.70;99.90
9849;DHT22;4963;51.444;6.528;2022-09-09T03:18:31;16.70;99.90
9849;DHT22;4963;51.444;6.528;2022-09-09T03:21:00;16.80;99.90
9849;DHT22;4963;51.444;6.528;2022-09-09T03:23:26;16.80;99.90
9849;DHT22;4963;51.444;6.528;2022-09-09T03:25:53;16.90;99.90
9849;DHT22;4963;51.444;6.528;2022-09-09T03:28:22;16.80;99.90
9849;DHT22;4963;51.444;6.528;2022-09-09T03:30:58;16.80;99.90
9849;DHT22;4963;51.444;6.528;2022-09-09T03:33:26;16.80;99.90
9849;DHT22;4963;51.444;6.528;2022-09-09T03:35:55;16.70;99.90
9849;DHT22;4963;51.444;6.528;2022-09-09T03:38:22;16.70;99.90
9849;DHT22;4963;51.444;6.528;2022-09-09T03:40:50;16.70;99.90
9849;DHT22;4963;51.444;6.528;2022-09-09T03:43:17;16.70;99.90
9849;DHT22;4963;51.444;6.528;2022-09-09T03:45:45;16.70;99.90
9849;DHT22;4963;51.444;6.528;2022-09-09T03:48:13;16.60;99.90
9849;DHT22;4963;51.444;6.528;2022-09-09T03:50:45;16.60;99.90
9849;DHT22;4963;51.444;6.528;2022-09-09T03:53:13;16.70;99.90
9849;DHT22;4963;51.444;6.528;2022-09-09T03:55:43;16.60;99.90
9849;DHT22;4963;51.444;6.528;2022-09-09T03:58:11;16.60;99.90
9849;DHT22;4963;51.444;6.528;2022-09-09T04:00:38;16.60;99.90
9849;DHT22;4963;51.444;6.528;2022-09-09T04:03:07;16.60;99.90
9849;DHT22;4963;51.444;6.528;2022-09-09T04:05:34;16.70;99.90
9849;DHT22;4963;51.444;6.528;2022-09-09T04:08:06;16.70;99.90
9849;DHT22;4963;51.444;6.528;2022-09-09T04:10:34;16.80;99.90
9849;DHT22;4963;51.444;6.528;2022-09-09T04:13:02;16.80;99.90
9849;DHT22;4963;51.444;6.528;2022-09-09T04:15:29;16.80;99.90
9849;DHT22;4963;51.444;6.528;2022-09-09T04:17:56;16.80;99.90
9849;DHT22;4963;51.444;6.528;2022-09-09T04:20:23;16.80;99.90
9849;DHT22;4963;51.444;6.528;2022-09-09T04:22:51;16.70;99.90
9849;DHT22;4963;51.444;6.528;2022-09-09T04:25:19;16.70;99.90
9849;DHT22;4963;51.444;6.528;2022-09-09T04:27:45;16.70;99.90
9849;DHT22;4963;51.444;6.528;2022-09-09T04:30:13;16.70;99.90
9849;DHT22;4963;51.444;6.528;2022-09-09T04:32:40;16.80;99.90
9849;DHT22;4963;51.444;6.528;2022-09-09T04:35:07;16.90;99.90
9849;DHT22;4963;51.444;6.528;2022-09-09T04:37:34;16.90;99.90
9849;DHT22;4963;51.444;6.528;2022-09-09T04:40:01;16.90;99.90
9849;DHT22;4963;51.444;6.528;2022-09-09T04:42:29;16.90;99.90
9849;DHT22;4963;51.444;6.528;2022-09-09T04:44:56;16.90;99.90
9849;DHT22;4963;51.444;6.528;2022-09-09T04:47:23;16.90;99.90
9849;DHT22;4963;51.444;6.528;2022-09-09T04:49:50;17.00;99.90
9849;DHT22;4963;51.444;6.528;2022-09-09T04:52:17;17.00;99.90
9849;DHT22;4963;51.444;6.528;2022-09-09T04:54:44;17.10;99.90
9849;DHT22;4963;51.444;6.528;2022-09-09T04:57:11;17.00;99.90
9849;DHT22;4963;51.444;6.528;2022-09-09T04:59:39;17.00;99.90
9849;DHT22;4963;51.444;6.528;2022-09-09T05:02:06;17.00;99.90
9849;DHT22;4963;51.444;6.528;2022-09-09T05:04:33;16.90;99.90
9849;DHT22;4963;51.444;6.528;2022-09-09T05:07:00;16.80;99.90
9849;DHT22;4963;51.444;6.528;2022-09-09T05:09:26;16.80;99.90
9849;DHT22;4963;51.444;6.528;2022-09-09T05:11:53;16.80;99.90
9849;DHT22;4963;51.444;6.528;2022-09-09T05:14:20;16.70;99.90
9849;DHT22;4963;51.444;6.528;2022-09-09T05:16:49;16.70;99.90
9849;DHT22;4963;51.444;6.528;2022-09-09T05:19:16;16.80;99.90
9849;DHT22;4963;51.444;6.528;2022-09-09T05:21:45;16.80;99.90
9849;DHT22;4963;51.444;6.528;2022-09-09T05:24:12;16.80;99.90
9849;DHT22;4963;51.444;6.528;2022-09-09T05:26:39;16.80;99.90
9849;DHT22;4963;51.444;6.528;2022-09-09T05:29:05;16.80;99.90
9849;DHT22;4963;51.444;6.528;2022-09-09T05:31:34;16.80;99.90
9849;DHT22;4963;51.444;6.528;2022-09-09T05:34:02;16.80;99.90
9849;DHT22;4963;51.444;6.528;2022-09-09T05:36:29;16.80;99.90
9849;DHT22;4963;51.444;6.528;2022-09-09T05:38:55;16.80;99.90
9849;DHT22;4963;51.444;6.528;2022-09-09T05:41:22;16.80;99.90
9849;DHT22;4963;51.444;6.528;2022-09-09T05:43:49;16.80;99.90
9849;DHT22;4963;51.444;6.528;2022-09-09T05:46:18;16.80;99.90
9849;DHT22;4963;51.444;6.528;2022-09-09T05:48:47;16.80;99.90
9849;DHT22;4963;51.444;6.528;2022-09-09T05:51:20;16.80;99.90
9849;DHT22;4963;51.444;6.528;2022-09-09T05:53:48;16.80;99.90
9849;DHT22;4963;51.444;6.528;2022-09-09T05:56:17;16.80;99.90
9849;DHT22;4963;51.444;6.528;2022-09-09T05:58:44;16.90;99.90
9849;DHT22;4963;51.444;6.528;2022-09-09T06:01:13;16.90;99.90
9849;DHT22;4963;51.444;6.528;2022-09-09T06:03:42;16.90;99.90
9849;DHT22;4963;51.444;6.528;2022-09-09T06:06:12;16.90;99.90
9849;DHT22;4963;51.444;6.528;2022-09-09T06:08:42;16.90;99.90
9849;DHT22;4963;51.444;6.528;2022-09-09T06:11:12;16.90;99.90
9849;DHT22;4963;51.444;6.528;2022-09-09T06:13:39;16.90;99.90
9849;DHT22;4963;51.444;6.528;2022-09-09T06:16:06;16.90;99.90
9849;DHT22;4963;51.444;6.528;2022-09-09T06:18:34;17.00;99.90
9849;DHT22;4963;51.444;6.528;2022-09-09T06:21:03;17.10;99.90
9849;DHT22;4963;51.444;6.528;2022-09-09T06:23:31;17.20;99.90
9849;DHT22;4963;51.444;6.528;2022-09-09T06:26:07;17.30;99.90
9849;DHT22;4963;51.444;6.528;2022-09-09T06:28:34;17.30;99.90
9849;DHT22;4963;51.444;6.528;2022-09-09T06:31:03;17.40;99.90
9849;DHT22;4963;51.444;6.528;2022-09-09T06:33:31;17.40;99.90
9849;DHT22;4963;51.444;6.528;2022-09-09T06:36:00;17.40;99.90
9849;DHT22;4963;51.444;6.528;2022-09-09T06:38:27;17.50;99.90
9849;DHT22;4963;51.444;6.528;2022-09-09T06:40:55;17.50;99.90
9849;DHT22;4963;51.444;6.528;2022-09-09T06:43:25;17.60;99.90
9849;DHT22;4963;51.444;6.528;2022-09-09T06:45:55;17.70;99.90
9849;DHT22;4963;51.444;6.528;2022-09-09T06:48:22;17.80;99.90
9849;DHT22;4963;51.444;6.528;2022-09-09T06:50:51;17.90;99.90
9849;DHT22;4963;51.444;6.528;2022-09-09T06:53:19;18.10;99.90
9849;DHT22;4963;51.444;6.528;2022-09-09T06:55:46;18.40;99.90
9849;DHT22;4963;51.444;6.528;2022-09-09T06:58:13;18.70;99.90
9849;DHT22;4963;51.444;6.528;2022-09-09T07:00:41;19.00;99.90
9849;DHT22;4963;51.444;6.528;2022-09-09T07:03:10;19.50;99.90
9849;DHT22;4963;51.444;6.528;2022-09-09T07:05:37;20.00;99.90
9849;DHT22;4963;51.444;6.528;2022-09-09T07:08:04;20.60;99.90
9849;DHT22;4963;51.444;6.528;2022-09-09T07:10:31;21.00;99.90
9849;DHT22;4963;51.444;6.528;2022-09-09T07:12:59;21.30;99.90
9849;DHT22;4963;51.444;6.528;2022-09-09T07:15:27;21.50;99.90
9849;DHT22;4963;51.444;6.528;2022-09-09T07:17:55;21.80;99.90
9849;DHT22;4963;51.444;6.528;2022-09-09T07:20:22;22.00;99.90
9849;DHT22;4963;51.444;6.528;2022-09-09T07:22:48;21.90;99.90
9849;DHT22;4963;51.444;6.528;2022-09-09T07:25:15;22.00;99.90
9849;DHT22;4963;51.444;6.528;2022-09-09T07:27:43;21.90;99.90
9849;DHT22;4963;51.444;6.528;2022-09-09T07:30:11;21.60;99.90
9849;DHT22;4963;51.444;6.528;2022-09-09T07:32:38;21.30;99.90
9849;DHT22;4963;51.444;6.528;2022-09-09T07:35:07;21.00;99.90
9849;DHT22;4963;51.444;6.528;2022-09-09T07:37:36;20.70;99.90
9849;DHT22;4963;51.444;6.528;2022-09-09T07:40:03;20.50;99.90
9849;DHT22;4963;51.444;6.528;2022-09-09T07:42:31;20.20;99.90
9849;DHT22;4963;51.444;6.528;2022-09-09T07:44:58;20.00;99.90
9849;DHT22;4963;51.444;6.528;2022-09-09T07:47:25;19.70;99.90
9849;DHT22;4963;51.444;6.528;2022-09-09T07:49:52;19.60;99.90
9849;DHT22;4963;51.444;6.528;2022-09-09T07:52:20;19.40;99.90
9849;DHT22;4963;51.444;6.528;2022-09-09T07:54:47;19.40;99.90
9849;DHT22;4963;51.444;6.528;2022-09-09T07:57:14;19.40;99.90
9849;DHT22;4963;51.444;6.528;2022-09-09T07:59:41;19.30;99.90
9849;DHT22;4963;51.444;6.528;2022-09-09T08:02:09;19.20;99.90
9849;DHT22;4963;51.444;6.528;2022-09-09T08:04:36;19.20;99.90
9849;DHT22;4963;51.444;6.528;2022-09-09T08:07:03;19.10;99.90
9849;DHT22;4963;51.444;6.528;2022-09-09T08:09:31;19.10;99.90
9849;DHT22;4963;51.444;6.528;2022-09-09T08:11:59;19.10;99.90
9849;DHT22;4963;51.444;6.528;2022-09-09T08:14:26;19.20;99.90
9849;DHT22;4963;51.444;6.528;2022-09-09T08:16:53;19.30;99.90
9849;DHT22;4963;51.444;6.528;2022-09-09T08:19:20;19.50;99.90
9849;DHT22;4963;51.444;6.528;2022-09-09T08:21:47;19.70;99.90
9849;DHT22;4963;51.444;6.528;2022-09-09T08:24:14;20.10;99.90
9849;DHT22;4963;51.444;6.528;2022-09-09T08:26:43;20.40;99.90
9849;DHT22;4963;51.444;6.528;2022-09-09T08:29:12;20.60;99.90
9849;DHT22;4963;51.444;6.528;2022-09-09T08:31:41;20.70;99.90
9849;DHT22;4963;51.444;6.528;2022-09-09T08:34:08;20.60;99.90
9849;DHT22;4963;51.444;6.528;2022-09-09T08:36:38;20.50;99.90
9849;DHT22;4963;51.444;6.528;2022-09-09T08:39:07;20.30;99.90
9849;DHT22;4963;51.444;6.528;2022-09-09T08:41:51;20.20;99.90
9849;DHT22;4963;51.444;6.528;2022-09-09T08:44:26;20.10;99.90
9849;DHT22;4963;51.444;6.528;2022-09-09T08:47:01;20.20;99.90
9849;DHT22;4963;51.444;6.528;2022-09-09T08:49:50;20.30;99.90
9849;DHT22;4963;51.444;6.528;2022-09-09T08:52:23;20.20;99.90
9849;DHT22;4963;51.444;6.528;2022-09-09T08:54:53;20.10;99.90
9849;DHT22;4963;51.444;6.528;2022-09-09T08:57:27;19.90;99.90
9849;DHT22;4963;51.444;6.528;2022-09-09T08:59:55;19.70;99.90
9849;DHT22;4963;51.444;6.528;2022-09-09T09:02:26;19.60;99.90
9849;DHT22;4963;51.444;6.528;2022-09-09T09:05:06;19.60;99.90
9849;DHT22;4963;51.444;6.528;2022-09-09T09:07:45;19.60;99.90
9849;DHT22;4963;51.444;6.528;2022-09-09T09:10:25;19.50;99.90
9849;DHT22;4963;51.444;6.528;2022-09-09T09:12:57;19.50;99.90
9849;DHT22;4963;51.444;6.528;2022-09-09T09:15:31;19.60;99.90
9849;DHT22;4963;51.444;6.528;2022-09-09T09:17:59;19.60;99.90
9849;DHT22;4963;51.444;6.528;2022-09-09T09:20:33;19.60;99.90
9849;DHT22;4963;51.444;6.528;2022-09-09T09:23:04;19.60;99.90
9849;DHT22;4963;51.444;6.528;2022-09-09T09:25:35;19.50;99.90
9849;DHT22;4963;51.444;6.528;2022-09-09T09:28:13;19.40;99.90
9849;DHT22;4963;51.444;6.528;2022-09-09T09:30:45;19.40;99.90
9849;DHT22;4963;51.444;6.528;2022-09-09T09:33:18;19.40;99.90
9849;DHT22;4963;51.444;6.528;2022-09-09T09:35:48;19.40;99.90
9849;DHT22;4963;51.444;6.528;2022-09-09T09:38:18;19.60;99.90
9849;DHT22;4963;51.444;6.528;2022-09-09T09:40:49;19.70;99.90
9849;DHT22;4963;51.444;6.528;2022-09-09T09:43:23;19.80;99.90
9849;DHT22;4963;51.444;6.528;2022-09-09T09:45:50;19.90;99.90
9849;DHT22;4963;51.444;6.528;2022-09-09T09:48:17;20.10;99.90
9849;DHT22;4963;51.444;6.528;2022-09-09T09:50:49;20.20;99.90
9849;DHT22;4963;51.444;6.528;2022-09-09T09:53:20;20.40;99.90
9849;DHT22;4963;51.444;6.528;2022-09-09T09:55:53;20.60;99.90
9849;DHT22;4963;51.444;6.528;2022-09-09T09:58:23;20.60;99.90
9849;DHT22;4963;51.444;6.528;2022-09-09T10:00:52;20.60;99.90
9849;DHT22;4963;51.444;6.528;2022-09-09T10:03:27;20.50;99.90
9849;DHT22;4963;51.444;6.528;2022-09-09T10:05:55;20.50;99.90
9849;DHT22;4963;51.444;6.528;2022-09-09T10:08:23;20.50;99.90
9849;DHT22;4963;51.444;6.528;2022-09-09T10:11:03;20.50;99.90
9849;DHT22;4963;51.444;6.528;2022-09-09T10:13:40;20.50;99.90
9849;DHT22;4963;51.444;6.528;2022-09-09T10:16:21;20.50;99.90
9849;DHT22;4963;51.444;6.528;2022-09-09T10:18:59;20.40;99.90
9849;DHT22;4963;51.444;6.528;2022-09-09T10:24:48;20.20;99.90
9849;DHT22;4963;51.444;6.528;2022-09-09T10:27:21;20.10;99.90
9849;DHT22;4963;51.444;6.528;2022-09-09T10:30:01;20.00;99.90
9849;DHT22;4963;51.444;6.528;2022-09-09T10:32:39;19.90;99.90
9849;DHT22;4963;51.444;6.528;2022-09-09T10:35:12;19.80;99.90
9849;DHT22;4963;51.444;6.528;2022-09-09T10:37:54;19.70;99.90
9849;DHT22;4963;51.444;6.528;2022-09-09T10:40:32;19.70;99.90
9849;DHT22;4963;51.444;6.528;2022-09-09T10:43:09;19.80;99.90
9849;DHT22;4963;51.444;6.528;2022-09-09T10:45:49;19.80;99.90
9849;DHT22;4963;51.444;6.528;2022-09-09T10:48:38;19.90;99.90
9849;DHT22;4963;51.444;6.528;2022-09-09T10:51:21;20.00;99.90
9849;DHT22;4963;51.444;6.528;2022-09-09T10:53:57;20.00;99.90
9849;DHT22;4963;51.444;6.528;2022-09-09T10:56:29;20.10;99.90
9849;DHT22;4963;51.444;6.528;2022-09-09T10:59:00;20.20;99.90
9849;DHT22;4963;51.444;6.528;2022-09-09T11:01:33;20.20;99.90
9849;DHT22;4963;51.444;6.528;2022-09-09T11:04:09;20.10;99.90
9849;DHT22;4963;51.444;6.528;2022-09-09T11:06:40;20.10;99.90
9849;DHT22;4963;51.444;6.528;2022-09-09T11:09:14;20.10;99.90
9849;DHT22;4963;51.444;6.528;2022-09-09T11:11:47;20.10;99.90
9849;DHT22;4963;51.444;6.528;2022-09-09T11:14:21;20.00;99.90
9849;DHT22;4963;51.444;6.528;2022-09-09T11:16:54;20.00;99.90
9849;DHT22;4963;51.444;6.528;2022-09-09T11:19:26;20.10;99.90
9849;DHT22;4963;51.444;6.528;2022-09-09T11:21:55;20.20;99.90
9849;DHT22;4963;51.444;6.528;2022-09-09T11:24:26;20.30;99.90
9849;DHT22;4963;51.444;6.528;2022-09-09T11:26:58;20.30;99.90
9849;DHT22;4963;51.444;6.528;2022-09-09T11:29:45;20.40;99.90
9849;DHT22;4963;51.444;6.528;2022-09-09T11:32:31;20.30;99.90
9849;DHT22;4963;51.444;6.528;2022-09-09T11:35:06;20.20;99.90
9849;DHT22;4963;51.444;6.528;2022-09-09T11:37:59;20.20;99.90
9849;DHT22;4963;51.444;6.528;2022-09-09T11:40:28;20.20;99.90
9849;DHT22;4963;51.444;6.528;2022-09-09T11:43:04;20.20;99.90
9849;DHT22;4963;51.444;6.528;2022-09-09T11:45:34;20.20;99.90
9849;DHT22;4963;51.444;6.528;2022-09-09T11:48:04;20.30;99.90
9849;DHT22;4963;51.444;6.528;2022-09-09T11:50:36;20.40;99.90
9849;DHT22;4963;51.444;6.528;2022-09-09T11:53:15;20.50;99.90
9849;DHT22;4963;51.444;6.528;2022-09-09T11:55:45;20.50;99.90
9849;DHT22;4963;51.444;6.528;2022-09-09T11:58:17;20.50;99.90
9849;DHT22;4963;51.444;6.528;2022-09-09T12:00:46;20.50;99.90
9849;DHT22;4963;51.444;6.528;2022-09-09T12:03:32;20.40;99.90
9849;DHT22;4963;51.444;6.528;2022-09-09T12:06:08;20.50;99.90
9849;DHT22;4963;51.444;6.528;2022-09-09T12:08:36;20.50;99.90
9849;DHT22;4963;51.444;6.528;2022-09-09T12:11:03;20.50;99.90
9849;DHT22;4963;51.444;6.528;2022-09-09T12:13:31;20.40;99.90
9849;DHT22;4963;51.444;6.528;2022-09-09T12:15:59;20.40;99.90
9849;DHT22;4963;51.444;6.528;2022-09-09T12:18:34;20.40;99.90
9849;DHT22;4963;51.444;6.528;2022-09-09T12:21:06;20.40;99.90
9849;DHT22;4963;51.444;6.528;2022-09-09T12:23:42;20.20;99.90
9849;DHT22;4963;51.444;6.528;2022-09-09T12:26:24;20.00;99.90
9849;DHT22;4963;51.444;6.528;2022-09-09T12:29:01;19.80;99.90
9849;DHT22;4963;51.444;6.528;2022-09-09T12:31:34;19.50;99.90
9849;DHT22;4963;51.444;6.528;2022-09-09T12:34:10;19.40;99.90
9849;DHT22;4963;51.444;6.528;2022-09-09T12:36:38;19.40;99.90
9849;DHT22;4963;51.444;6.528;2022-09-09T12:39:15;19.40;99.90
9849;DHT22;4963;51.444;6.528;2022-09-09T12:41:51;19.30;99.90
9849;DHT22;4963;51.444;6.528;2022-09-09T12:44:21;19.30;99.90
9849;DHT22;4963;51.444;6.528;2022-09-09T12:46:49;19.30;99.90
9849;DHT22;4963;51.444;6.528;2022-09-09T12:49:30;19.40;99.90
9849;DHT22;4963;51.444;6.528;2022-09-09T12:52:01;19.60;99.90
9849;DHT22;4963;51.444;6.528;2022-09-09T12:54:33;19.70;99.90
9849;DHT22;4963;51.444;6.528;2022-09-09T12:57:02;19.80;99.90
9849;DHT22;4963;51.444;6.528;2022-09-09T12:59:36;19.90;99.90
9849;DHT22;4963;51.444;6.528;2022-09-09T13:02:20;19.90;99.90
9849;DHT22;4963;51.444;6.528;2022-09-09T13:04:49;20.00;99.90
9849;DHT22;4963;51.444;6.528;2022-09-09T13:07:17;19.90;99.90
9849;DHT22;4963;51.444;6.528;2022-09-09T13:09:46;19.80;99.90
9849;DHT22;4963;51.444;6.528;2022-09-09T13:12:15;19.70;99.90
9849;DHT22;4963;51.444;6.528;2022-09-09T13:14:44;19.70;99.90
9849;DHT22;4963;51.444;6.528;2022-09-09T13:17:18;19.70;99.90
9849;DHT22;4963;51.444;6.528;2022-09-09T13:19:47;19.70;99.90
9849;DHT22;4963;51.444;6.528;2022-09-09T13:22:21;19.70;99.90
9849;DHT22;4963;51.444;6.528;2022-09-09T13:25:03;19.70;99.90
9849;DHT22;4963;51.444;6.528;2022-09-09T13:27:32;19.80;99.90
9849;DHT22;4963;51.444;6.528;2022-09-09T13:29:59;19.80;99.90
9849;DHT22;4963;51.444;6.528;2022-09-09T13:32:28;19.90;99.90
9849;DHT22;4963;51.444;6.528;2022-09-09T13:34:59;19.90;99.90
9849;DHT22;4963;51.444;6.528;2022-09-09T13:37:30;20.00;99.90
9849;DHT22;4963;51.444;6.528;2022-09-09T13:39:59;20.00;99.90
9849;DHT22;4963;51.444;6.528;2022-09-09T13:42:27;20.10;99.90
9849;DHT22;4963;51.444;6.528;2022-09-09T13:44:55;20.10;99.90
9849;DHT22;4963;51.444;6.528;2022-09-09T13:47:28;20.10;99.90
9849;DHT22;4963;51.444;6.528;2022-09-09T13:49:58;20.10;99.90
9849;DHT22;4963;51.444;6.528;2022-09-09T13:52:27;20.10;99.90
9849;DHT22;4963;51.444;6.528;2022-09-09T13:54:57;20.10;99.90
9849;DHT22;4963;51.444;6.528;2022-09-09T13:57:25;20.10;99.90
9849;DHT22;4963;51.444;6.528;2022-09-09T13:59:53;20.10;99.90
9849;DHT22;4963;51.444;6.528;2022-09-09T14:02:21;20.20;99.90
9849;DHT22;4963;51.444;6.528;2022-09-09T14:04:49;20.20;99.90
9849;DHT22;4963;51.444;6.528;2022-09-09T14:07:22;20.20;99.90
9849;DHT22;4963;51.444;6.528;2022-09-09T14:09:48;20.10;99.90
9849;DHT22;4963;51.444;6.528;2022-09-09T14:12:17;20.00;99.90
9849;DHT22;4963;51.444;6.528;2022-09-09T14:14:44;19.90;99.90
9849;DHT22;4963;51.444;6.528;2022-09-09T14:17:11;19.80;99.90
9849;DHT22;4963;51.444;6.528;2022-09-09T14:19:37;19.70;99.90
9849;DHT22;4963;51.444;6.528;2022-09-09T14:22:04;19.40;99.90
9849;DHT22;4963;51.444;6.528;2022-09-09T14:24:32;19.00;99.90
9849;DHT22;4963;51.444;6.528;2022-09-09T14:26:59;18.70;99.90
9849;DHT22;4963;51.444;6.528;2022-09-09T14:29:26;18.60;99.90
9849;DHT22;4963;51.444;6.528;2022-09-09T14:31:53;18.60;99.90
9849;DHT22;4963;51.444;6.528;2022-09-09T14:34:20;18.50;99.90
9849;DHT22;4963;51.444;6.528;2022-09-09T14:36:47;18.40;99.90
9849;DHT22;4963;51.444;6.528;2022-09-09T14:39:13;18.30;99.90
9849;DHT22;4963;51.444;6.528;2022-09-09T14:41:41;18.20;99.90
9849;DHT22;4963;51.444;6.528;2022-09-09T14:44:08;18.10;99.90
9849;DHT22;4963;51.444;6.528;2022-09-09T14:46:35;18.10;99.90
9849;DHT22;4963;51.444;6.528;2022-09-09T14:49:02;18.10;99.90
9849;DHT22;4963;51.444;6.528;2022-09-09T14:51:29;17.90;99.90
9849;DHT22;4963;51.444;6.528;2022-09-09T14:53:58;17.90;99.90
9849;DHT22;4963;51.444;6.528;2022-09-09T14:56:27;17.80;99.90
9849;DHT22;4963;51.444;6.528;2022-09-09T14:58:57;17.70;99.90
9849;DHT22;4963;51.444;6.528;2022-09-09T15:01:26;17.60;99.90
9849;DHT22;4963;51.444;6.528;2022-09-09T15:03:55;17.60;99.90
9849;DHT22;4963;51.444;6.528;2022-09-09T15:06:24;17.60;99.90
9849;DHT22;4963;51.444;6.528;2022-09-09T15:08:53;17.70;99.90
9849;DHT22;4963;51.444;6.528;2022-09-09T15:11:22;17.70;99.90
9849;DHT22;4963;51.444;6.528;2022-09-09T15:13:51;17.70;99.90
9849;DHT22;4963;51.444;6.528;2022-09-09T15:16:20;17.80;99.90
9849;DHT22;4963;51.444;6.528;2022-09-09T15:18:51;17.80;99.90
9849;DHT22;4963;51.444;6.528;2022-09-09T15:21:21;17.90;99.90
9849;DHT22;4963;51.444;6.528;2022-09-09T15:23:48;17.90;99.90
9849;DHT22;4963;51.444;6.528;2022-09-09T15:26:15;18.00;99.90
9849;DHT22;4963;51.444;6.528;2022-09-09T15:28:44;18.20;99.90
9849;DHT22;4963;51.444;6.528;2022-09-09T15:31:14;18.20;99.90
9849;DHT22;4963;51.444;6.528;2022-09-09T15:33:47;18.20;99.90
9849;DHT22;4963;51.444;6.528;2022-09-09T15:36:17;18.40;99.90
9849;DHT22;4963;51.444;6.528;2022-09-09T15:38:44;18.50;99.90
9849;DHT22;4963;51.444;6.528;2022-09-09T15:41:12;18.40;99.90
9849;DHT22;4963;51.444;6.528;2022-09-09T15:43:42;18.40;99.90
9849;DHT22;4963;51.444;6.528;2022-09-09T15:46:25;18.40;99.90
9849;DHT22;4963;51.444;6.528;2022-09-09T15:48:56;18.50;99.90
9849;DHT22;4963;51.444;6.528;2022-09-09T15:51:24;18.50;99.90
9849;DHT22;4963;51.444;6.528;2022-09-09T15:53:55;18.50;99.90
9849;DHT22;4963;51.444;6.528;2022-09-09T15:56:23;18.60;99.90
9849;DHT22;4963;51.444;6.528;2022-09-09T15:58:50;18.50;99.90
9849;DHT22;4963;51.444;6.528;2022-09-09T16:01:18;18.50;99.90
9849;DHT22;4963;51.444;6.528;2022-09-09T16:03:45;18.60;99.90
9849;DHT22;4963;51.444;6.528;2022-09-09T16:06:14;18.60;99.90
9849;DHT22;4963;51.444;6.528;2022-09-09T16:08:42;18.60;99.90
9849;DHT22;4963;51.444;6.528;2022-09-09T16:11:11;18.50;99.90
9849;DHT22;4963;51.444;6.528;2022-09-09T16:13:40;18.50;99.90
9849;DHT22;4963;51.444;6.528;2022-09-09T16:16:08;18.60;99.90
9849;DHT22;4963;51.444;6.528;2022-09-09T16:18:36;18.60;99.90
9849;DHT22;4963;51.444;6.528;2022-09-09T16:21:04;18.60;99.90
9849;DHT22;4963;51.444;6.528;2022-09-09T16:23:32;18.60;99.90
9849;DHT22;4963;51.444;6.528;2022-09-09T16:26:00;18.60;99.90
9849;DHT22;4963;51.444;6.528;2022-09-09T16:28:27;18.60;99.90